Time,TemperatureF,DewpointF,PressureIn,WindDirection,WindDirectionDegrees,WindSpeedMPH,WindSpeedGustMPH,Humidity,HourlyPrecipIn,Conditions,Clouds,dailyrainin,SoftwareType,DateUTC
2013-04-26 00:05:00,47.1,42.2,30.09,NW,315,2.7,-999.0,83,-99.99,,,0.00,Acu-Link.com,2013-04-26 04:05:00,
2013-04-26 00:20:00,50.5,40.0,30.10,NNW,337,2.2,-999.0,67,-99.99,,,0.00,Acu-Link.com,2013-04-26 04:20:00,
2013-04-26 00:36:00,53.2,36.0,30.11,WNW,292,2.2,-999.0,52,-99.99,,,0.00,Acu-Link.com,2013-04-26 04:36:00,
2013-04-26 00:51:00,53.6,34.4,30.11,NNW,337,2.2,-999.0,48,-99.99,,,0.00,Acu-Link.com,2013-04-26 04:51:00,
2013-04-26 01:06:00,53.8,33.5,30.11,NW,315,2.2,-999.0,46,-99.99,,,0.00,Acu-Link.com,2013-04-26 05:06:00,
2013-04-26 01:21:00,53.6,33.3,30.11,NNW,337,2.2,-999.0,46,-99.99,,,0.00,Acu-Link.com,2013-04-26 05:21:00,
2013-04-26 01:36:00,53.4,33.1,30.12,NW,315,2.7,-999.0,46,-99.99,,,0.00,Acu-Link.com,2013-04-26 05:36:00,
2013-04-26 01:51:00,52.9,33.2,30.12,NNW,337,2.2,-999.0,47,-99.99,,,0.00,Acu-Link.com,2013-04-26 05:51:00,
2013-04-26 02:06:00,52.7,33.0,30.11,WNW,292,1.7,-999.0,47,-99.99,,,0.00,Acu-Link.com,2013-04-26 06:06:00,
2013-04-26 02:21:00,50.9,36.2,30.11,North,0,1.7,-999.0,57,-99.99,,,0.00,Acu-Link.com,2013-04-26 06:21:00,
2013-04-26 02:36:00,51.1,33.6,30.11,NW,315,2.2,-999.0,51,-99.99,,,0.00,Acu-Link.com,2013-04-26 06:36:00,
2013-04-26 02:52:00,51.3,33.8,30.12,NW,315,2.2,-999.0,51,-99.99,,,0.00,Acu-Link.com,2013-04-26 06:52:00,
2013-04-26 03:07:00,51.3,33.8,30.11,WNW,292,3.2,-999.0,51,-99.99,,,0.00,Acu-Link.com,2013-04-26 07:07:00,
2013-04-26 03:22:00,51.1,34.1,30.11,WNW,292,2.2,-999.0,52,-99.99,,,0.00,Acu-Link.com,2013-04-26 07:22:00,
2013-04-26 03:37:00,50.9,34.4,30.12,NW,315,1.7,-999.0,53,-99.99,,,0.00,Acu-Link.com,2013-04-26 07:37:00,
2013-04-26 03:52:00,50.5,34.0,30.12,NNW,337,1.1,-999.0,53,-99.99,,,0.00,Acu-Link.com,2013-04-26 07:52:00,
2013-04-26 04:07:00,50.5,34.0,30.13,NNW,337,2.2,-999.0,53,-99.99,,,0.00,Acu-Link.com,2013-04-26 08:07:00,
2013-04-26 04:22:00,50.4,33.9,30.13,NNW,337,1.7,-999.0,53,-99.99,,,0.00,Acu-Link.com,2013-04-26 08:22:00,
2013-04-26 04:37:00,49.8,33.8,30.12,NW,315,1.7,-999.0,54,-99.99,,,0.00,Acu-Link.com,2013-04-26 08:37:00,
2013-04-26 04:52:00,49.3,33.8,30.13,NNW,337,1.7,-999.0,55,-99.99,,,0.00,Acu-Link.com,2013-04-26 08:52:00,
2013-04-26 05:07:00,48.7,34.2,30.13,NNW,337,1.1,-999.0,57,-99.99,,,0.00,Acu-Link.com,2013-04-26 09:07:00,
2013-04-26 05:22:00,48.6,34.1,30.14,NW,315,0.0,-999.0,57,-99.99,,,0.00,Acu-Link.com,2013-04-26 09:22:00,
2013-04-26 05:37:00,48.4,34.3,30.13,NNW,337,2.7,-999.0,58,-99.99,,,0.00,Acu-Link.com,2013-04-26 09:37:00,
2013-04-26 05:53:00,48.0,34.8,30.14,NE,45,0.0,-999.0,60,-99.99,,,0.00,Acu-Link.com,2013-04-26 09:53:00,
2013-04-26 06:08:00,47.5,35.9,30.15,NNE,22,0.0,-999.0,64,-99.99,,,0.00,Acu-Link.com,2013-04-26 10:08:00,
2013-04-26 06:23:00,46.4,34.9,30.15,NNE,22,0.0,-999.0,64,-99.99,,,0.00,Acu-Link.com,2013-04-26 10:23:00,
2013-04-26 06:38:00,45.3,37.2,30.16,North,0,0.0,-999.0,73,-99.99,,,0.00,Acu-Link.com,2013-04-26 10:38:00,
2013-04-26 06:53:00,44.6,37.5,30.17,North,0,0.0,-999.0,76,-99.99,,,0.00,Acu-Link.com,2013-04-26 10:53:00,
2013-04-26 07:08:00,44.1,37.0,30.18,NNE,22,0.0,-999.0,76,-99.99,,,0.00,Acu-Link.com,2013-04-26 11:08:00,
2013-04-26 07:23:00,45.0,36.2,30.19,NE,45,0.0,-999.0,71,-99.99,,,0.00,Acu-Link.com,2013-04-26 11:23:00,
2013-04-26 07:38:00,46.9,34.6,30.21,NNE,22,1.1,-999.0,62,-99.99,,,0.00,Acu-Link.com,2013-04-26 11:38:00,
2013-04-26 07:53:00,48.7,35.4,30.21,NNW,337,0.0,-999.0,60,-99.99,,,0.00,Acu-Link.com,2013-04-26 11:53:00,
2013-04-26 08:09:00,50.5,35.4,30.22,NE,45,1.1,-999.0,56,-99.99,,,0.00,Acu-Link.com,2013-04-26 12:09:00,
2013-04-26 08:24:00,51.3,36.6,30.23,NNE,22,1.7,-999.0,57,-99.99,,,0.00,Acu-Link.com,2013-04-26 12:24:00,
2013-04-26 08:39:00,52.3,36.2,30.23,North,0,1.7,-999.0,54,-99.99,,,0.00,Acu-Link.com,2013-04-26 12:39:00,
2013-04-26 08:54:00,53.8,37.5,30.24,NNW,337,1.7,-999.0,54,-99.99,,,0.00,Acu-Link.com,2013-04-26 12:54:00,
2013-04-26 09:09:00,55.2,37.4,30.24,NNW,337,1.7,-999.0,51,-99.99,,,0.00,Acu-Link.com,2013-04-26 13:09:00,
2013-04-26 09:24:00,58.3,36.5,30.25,East,90,2.2,-999.0,44,-99.99,,,0.00,Acu-Link.com,2013-04-26 13:24:00,
2013-04-26 09:39:00,59.7,36.0,30.25,ENE,67,3.2,-999.0,41,-99.99,,,0.00,Acu-Link.com,2013-04-26 13:39:00,
2013-04-26 09:54:00,60.3,33.2,30.26,ESE,112,4.2,-999.0,36,-99.99,,,0.00,Acu-Link.com,2013-04-26 13:54:00,
2013-04-26 10:09:00,61.7,34.5,30.26,ESE,112,2.7,-999.0,36,-99.99,,,0.00,Acu-Link.com,2013-04-26 14:09:00,
2013-04-26 10:25:00,62.4,35.1,30.26,ENE,67,3.2,-999.0,36,-99.99,,,0.00,Acu-Link.com,2013-04-26 14:25:00,
2013-04-26 10:40:00,63.0,32.7,30.27,ENE,67,6.3,-999.0,32,-99.99,,,0.00,Acu-Link.com,2013-04-26 14:40:00,
2013-04-26 10:55:00,63.9,34.2,30.26,NNE,22,4.2,-999.0,33,-99.99,,,0.00,Acu-Link.com,2013-04-26 14:55:00,
2013-04-26 11:10:00,65.3,34.7,30.25,SSE,157,3.2,-999.0,32,-99.99,,,0.00,Acu-Link.com,2013-04-26 15:10:00,
2013-04-26 11:25:00,66.0,32.8,30.25,ESE,112,3.2,-999.0,29,-99.99,,,0.00,Acu-Link.com,2013-04-26 15:25:00,
2013-04-26 11:40:00,66.6,34.2,30.25,ESE,112,3.7,-999.0,30,-99.99,,,0.00,Acu-Link.com,2013-04-26 15:40:00,
2013-04-26 11:55:00,67.1,34.6,30.23,East,90,5.3,-999.0,30,-99.99,,,0.00,Acu-Link.com,2013-04-26 15:55:00,
2013-04-26 12:10:00,66.9,34.5,30.23,ENE,67,4.2,-999.0,30,-99.99,,,0.00,Acu-Link.com,2013-04-26 16:10:00,
2013-04-26 12:25:00,67.3,34.0,30.23,East,90,4.2,-999.0,29,-99.99,,,0.00,Acu-Link.com,2013-04-26 16:25:00,
2013-04-26 12:41:00,69.6,35.9,30.22,NE,45,5.3,-999.0,29,-99.99,,,0.00,Acu-Link.com,2013-04-26 16:41:00,
2013-04-26 12:56:00,68.4,34.9,30.22,NNW,337,1.7,-999.0,29,-99.99,,,0.00,Acu-Link.com,2013-04-26 16:56:00,
2013-04-26 13:11:00,70.0,35.4,30.21,SE,135,1.7,-999.0,28,-99.99,,,0.00,Acu-Link.com,2013-04-26 17:11:00,
2013-04-26 13:26:00,70.5,34.9,30.21,SSE,157,3.2,-999.0,27,-99.99,,,0.00,Acu-Link.com,2013-04-26 17:26:00,
2013-04-26 13:41:00,69.8,33.4,30.21,NE,45,1.7,-999.0,26,-99.99,,,0.00,Acu-Link.com,2013-04-26 17:41:00,
2013-04-26 13:56:00,70.7,33.1,30.20,East,90,1.1,-999.0,25,-99.99,,,0.00,Acu-Link.com,2013-04-26 17:56:00,
2013-04-26 14:11:00,71.2,34.6,30.20,NNE,22,3.7,-999.0,26,-99.99,,,0.00,Acu-Link.com,2013-04-26 18:11:00,
2013-04-26 14:26:00,70.9,35.2,30.20,SSE,157,3.2,-999.0,27,-99.99,,,0.00,Acu-Link.com,2013-04-26 18:26:00,
2013-04-26 14:41:00,71.4,34.7,30.19,South,180,0.0,-999.0,26,-99.99,,,0.00,Acu-Link.com,2013-04-26 18:41:00,
2013-04-26 14:56:00,72.9,37.0,30.19,ESE,112,3.2,-999.0,27,-99.99,,,0.00,Acu-Link.com,2013-04-26 18:56:00,
2013-04-26 15:12:00,72.3,36.4,30.19,ESE,112,2.7,-999.0,27,-99.99,,,0.00,Acu-Link.com,2013-04-26 19:12:00,
2013-04-26 15:27:00,70.2,35.6,30.18,NE,45,2.2,-999.0,28,-99.99,,,0.00,Acu-Link.com,2013-04-26 19:27:00,
2013-04-26 15:42:00,70.5,36.7,30.18,NW,315,0.0,-999.0,29,-99.99,,,0.00,Acu-Link.com,2013-04-26 19:42:00,
2013-04-26 15:57:00,71.2,36.4,30.17,ESE,112,2.2,-999.0,28,-99.99,,,0.00,Acu-Link.com,2013-04-26 19:57:00,
2013-04-26 16:12:00,72.0,38.0,30.16,SSE,157,2.2,-999.0,29,-99.99,,,0.00,Acu-Link.com,2013-04-26 20:12:00,
2013-04-26 16:27:00,70.9,37.9,30.15,East,90,2.2,-999.0,30,-99.99,,,0.00,Acu-Link.com,2013-04-26 20:27:00,
2013-04-26 16:42:00,71.2,37.3,30.14,NE,45,2.7,-999.0,29,-99.99,,,0.00,Acu-Link.com,2013-04-26 20:42:00,
2013-04-26 16:57:00,70.0,37.1,30.14,NNE,22,1.7,-999.0,30,-99.99,,,0.00,Acu-Link.com,2013-04-26 20:57:00,
2013-04-26 17:12:00,70.7,36.9,30.14,North,0,2.7,-999.0,29,-99.99,,,0.00,Acu-Link.com,2013-04-26 21:12:00,
2013-04-26 17:28:00,70.7,38.6,30.14,ESE,112,2.2,-999.0,31,-99.99,,,0.00,Acu-Link.com,2013-04-26 21:28:00,
2013-04-26 17:43:00,71.6,38.5,30.13,ENE,67,2.7,-999.0,30,-99.99,,,0.00,Acu-Link.com,2013-04-26 21:43:00,
2013-04-26 17:58:00,70.5,39.2,30.13,ESE,112,0.0,-999.0,32,-99.99,,,0.00,Acu-Link.com,2013-04-26 21:58:00,
2013-04-26 18:13:00,70.5,39.2,30.13,ENE,67,0.0,-999.0,32,-99.99,,,0.00,Acu-Link.com,2013-04-26 22:13:00,
2013-04-26 18:28:00,70.0,40.3,30.13,SSE,157,0.0,-999.0,34,-99.99,,,0.00,Acu-Link.com,2013-04-26 22:28:00,
2013-04-26 18:43:00,69.3,40.5,30.14,North,0,0.0,-999.0,35,-99.99,,,0.00,Acu-Link.com,2013-04-26 22:43:00,
2013-04-26 18:58:00,68.7,42.1,30.13,ENE,67,0.0,-999.0,38,-99.99,,,0.00,Acu-Link.com,2013-04-26 22:58:00,
2013-04-26 19:13:00,68.0,42.8,30.14,NNE,22,0.0,-999.0,40,-99.99,,,0.00,Acu-Link.com,2013-04-26 23:13:00,
2013-04-26 19:28:00,66.6,43.4,30.14,ENE,67,0.0,-999.0,43,-99.99,,,0.00,Acu-Link.com,2013-04-26 23:28:00,
2013-04-26 19:44:00,66.0,45.7,30.14,ESE,112,0.0,-999.0,48,-99.99,,,0.00,Acu-Link.com,2013-04-26 23:44:00,
2013-04-26 20:14:00,63.0,44.6,30.16,NNW,337,0.0,-999.0,51,-99.99,,,0.00,Acu-Link.com,2013-04-27 00:14:00,
2013-04-26 20:29:00,61.3,45.9,30.16,ESE,112,0.0,-999.0,57,-99.99,,,0.00,Acu-Link.com,2013-04-27 00:29:00,
2013-04-26 20:44:00,60.8,45.0,30.16,NE,45,0.0,-999.0,56,-99.99,,,0.00,Acu-Link.com,2013-04-27 00:44:00,
2013-04-26 20:59:00,60.3,45.0,30.17,NNE,22,0.0,-999.0,57,-99.99,,,0.00,Acu-Link.com,2013-04-27 00:59:00,
2013-04-26 21:15:00,59.7,46.7,30.17,NNE,22,0.0,-999.0,62,-99.99,,,0.00,Acu-Link.com,2013-04-27 01:15:00,
2013-04-26 21:30:00,59.4,48.4,30.18,East,90,0.0,-999.0,67,-99.99,,,0.00,Acu-Link.com,2013-04-27 01:30:00,
2013-04-26 21:45:00,58.8,46.6,30.17,NNE,22,0.0,-999.0,64,-99.99,,,0.00,Acu-Link.com,2013-04-27 01:45:00,
2013-04-26 22:00:00,57.9,47.8,30.16,NNE,22,0.0,-999.0,69,-99.99,,,0.00,Acu-Link.com,2013-04-27 02:00:00,
2013-04-26 22:15:00,57.6,47.5,30.16,NNE,22,0.0,-999.0,69,-99.99,,,0.00,Acu-Link.com,2013-04-27 02:15:00,
2013-04-26 22:30:00,57.2,47.9,30.15,ESE,112,0.0,-999.0,71,-99.99,,,0.00,Acu-Link.com,2013-04-27 02:30:00,
2013-04-26 22:45:00,56.8,46.0,30.16,NNE,22,0.0,-999.0,67,-99.99,,,0.00,Acu-Link.com,2013-04-27 02:45:00,
2013-04-26 23:00:00,56.7,45.5,30.15,NNE,22,0.0,-999.0,66,-99.99,,,0.00,Acu-Link.com,2013-04-27 03:00:00,
2013-04-26 23:15:00,56.7,48.5,30.15,SE,135,0.0,-999.0,74,-99.99,,,0.00,Acu-Link.com,2013-04-27 03:15:00,
2013-04-26 23:30:00,56.3,47.8,30.14,ESE,112,0.0,-999.0,73,-99.99,,,0.00,Acu-Link.com,2013-04-27 03:30:00,
2013-04-26 23:46:00,56.5,47.9,30.14,NNE,22,0.0,-999.0,73,-99.99,,,0.00,Acu-Link.com,2013-04-27 03:46:00,